Time;durP1;ratioP1;P1;durP2;ratioP2;P2;SDS_P1;SDS_P2;PMS_P1;PMS_P2;Temp;Humidity;BMP_temperature;BMP_pressure;BME280_temperature;BME280_humidity;BME280_pressure;Samples;Min_cycle;Max_cycle;Signal;HPM_P1;HPM_P2
2021/09/24 00:02:41;;;;;;;1999.90;999.90;;;;;;;15.61;60.90;100639.81;15554270;28;20050;-56
2021/09/24 00:10:16;;;;;;;1999.90;999.90;;;;;;;15.44;61.31;100637.44;15553999;28;20135;-55
2021/09/24 00:17:48;;;;;;;1999.90;999.90;;;;;;;15.40;60.36;100611.22;15553698;28;20074;-56
2021/09/24 00:25:22;;;;;;;1999.90;999.90;;;;;;;15.49;60.36;100639.94;15538492;28;20667;-53
2021/09/24 00:32:54;;;;;;;1999.90;999.90;;;;;;;15.17;61.60;100651.28;15553108;28;20072;-54
2021/09/24 00:40:31;;;;;;;1999.90;999.90;;;;;;;15.14;61.45;100637.97;15502825;28;20069;-56
2021/09/24 00:48:04;;;;;;;1999.90;999.90;;;;;;;14.98;62.43;100652.03;15552044;28;20060;-53
2021/09/24 00:55:38;;;;;;;1999.90;999.90;;;;;;;15.09;62.62;100671.13;15551128;28;20077;-53
2021/09/24 01:03:10;;;;;;;1999.90;999.90;;;;;;;14.87;62.70;100644.50;15551077;28;20042;-54
2021/09/24 01:10:44;;;;;;;1999.90;999.90;;;;;;;15.05;62.35;100644.94;15534202;28;20587;-56
2021/09/24 01:18:16;;;;;;;1999.90;999.90;;;;;;;14.95;62.40;100635.09;15551739;28;20046;-57
2021/09/24 01:25:50;;;;;;;1999.90;999.90;;;;;;;14.89;63.56;100645.78;15533748;28;20659;-55
2021/09/24 01:33:22;;;;;;;1999.90;999.90;;;;;;;14.69;64.25;100644.06;15551447;28;20053;-55
2021/09/24 01:40:56;;;;;;;1999.90;999.90;;;;;;;15.10;63.90;100659.53;15533348;28;20479;-54
2021/09/24 01:48:28;;;;;;;1999.90;999.90;;;;;;;14.80;64.38;100662.03;15550608;28;20042;-57
2021/09/24 01:56:05;;;;;;;1999.90;999.90;;;;;;;14.94;64.19;100681.22;15532643;28;20133;-57
2021/09/24 02:03:37;;;;;;;1999.90;999.90;;;;;;;14.90;64.55;100683.94;15549584;28;20038;-57
2021/09/24 02:11:11;;;;;;;1999.90;999.90;;;;;;;15.11;63.90;100680.84;15555255;28;20606;-56
2021/09/24 02:18:45;;;;;;;1999.90;999.90;;;;;;;14.96;64.00;100682.47;15561263;28;20073;-57
2021/09/24 02:26:19;;;;;;;1999.90;999.90;;;;;;;15.12;63.68;100690.91;15543177;28;20129;-55
2021/09/24 02:33:51;;;;;;;1999.90;999.90;;;;;;;15.04;63.83;100700.34;15542171;28;20060;-51
2021/09/24 02:41:25;;;;;;;1999.90;999.90;;;;;;;14.96;64.46;100704.97;15559133;28;20060;-55
2021/09/24 02:48:57;;;;;;;1999.90;999.90;;;;;;;14.90;64.98;100714.84;15501667;28;20439;-51
2021/09/24 02:56:31;;;;;;;1999.90;999.90;;;;;;;14.83;65.43;100719.47;15541122;28;20401;-56
2021/09/24 03:04:03;;;;;;;1999.90;999.90;;;;;;;14.95;65.31;100742.66;15558018;28;20061;-57
2021/09/24 03:11:37;;;;;;;1999.90;999.90;;;;;;;14.98;65.62;100741.94;15558191;28;20074;-57
2021/09/24 03:19:11;;;;;;;1999.90;999.90;;;;;;;14.87;65.70;100746.47;15557742;28;20061;-58
2021/09/24 03:26:46;;;;;;;1999.90;999.90;;;;;;;14.80;66.07;100756.69;15556723;28;20045;-54
2021/09/24 03:34:18;;;;;;;1999.90;999.90;;;;;;;15.11;65.16;100758.69;15556391;28;20073;-50
2021/09/24 03:41:54;;;;;;;1999.90;999.90;;;;;;;15.04;65.45;100773.41;15555648;28;20055;-54
2021/09/24 03:49:26;;;;;;;1999.90;999.90;;;;;;;15.01;65.48;100771.31;15554042;28;20539;-52
2021/09/24 03:57:00;;;;;;;1999.90;999.90;;;;;;;15.27;64.75;100771.56;15554789;28;20052;-53
2021/09/24 04:04:33;;;;;;;1999.90;999.90;;;;;;;15.00;65.30;100778.09;15552867;28;20172;-56
2021/09/24 04:12:07;;;;;;;1999.90;999.90;;;;;;;14.98;66.16;100778.47;15535615;28;20048;-52
2021/09/24 04:19:39;;;;;;;1999.90;999.90;;;;;;;14.92;66.18;100779.91;15546182;28;20406;-56
2021/09/24 04:27:13;;;;;;;1999.90;999.90;;;;;;;14.59;67.32;100787.81;15535296;28;20452;-54
2021/09/24 04:34:45;;;;;;;1999.90;999.90;;;;;;;14.57;67.34;100784.53;15509099;28;20038;-56
2021/09/24 04:42:19;;;;;;;1999.90;999.90;;;;;;;14.72;67.13;100789.41;15534515;28;20515;-57
2021/09/24 04:49:52;;;;;;;1999.90;999.90;;;;;;;14.56;67.96;100799.75;15532810;28;20179;-58
2021/09/24 04:57:25;;;;;;;1999.90;999.90;;;;;;;14.44;68.24;100807.06;15533903;28;20407;-55
2021/09/24 05:04:58;;;;;;;1999.90;999.90;;;;;;;14.60;68.06;100812.75;15546186;28;20068;-54
2021/09/24 05:12:32;;;;;;;1999.90;999.90;;;;;;;14.72;67.96;100809.06;15546525;28;20580;-54
2021/09/24 05:20:05;;;;;;;1999.90;999.90;;;;;;;14.46;68.73;100805.91;15541899;28;20054;-53
2021/09/24 05:27:39;;;;;;;;;;;;;;;14.70;68.57;100823.47;15522525;28;20065;-53
2021/09/24 05:35:12;;;;;;;;;;;;;;;14.47;69.13;100824.38;15542812;28;19935;-56
2021/09/24 05:42:45;;;;;;;1999.90;999.90;;;;;;;14.66;68.65;100832.94;15518954;28;20303;-57
2021/09/24 05:50:18;;;;;;;1999.90;999.90;;;;;;;14.43;69.51;100838.28;15539372;28;20073;-54
2021/09/24 05:57:53;;;;;;;1999.90;999.90;;;;;;;14.66;68.78;100838.56;15531696;28;20129;-55
2021/09/24 06:05:26;;;;;;;1999.90;999.90;;;;;;;14.48;69.45;100846.47;15548791;28;20061;-55
2021/09/24 06:12:59;;;;;;;1999.90;999.90;;;;;;;14.63;69.60;100856.13;15549126;28;20425;-54
2021/09/24 06:20:32;;;;;;;;;;;;;;;14.63;69.24;100871.00;15549286;28;20116;-58
2021/09/24 06:28:06;;;;;;;1999.90;999.90;;;;;;;14.61;69.88;100861.31;15548784;28;20339;-54
2021/09/24 06:35:38;;;;;;;1999.90;999.90;;;;;;;14.95;69.02;100874.72;15530668;28;20046;-56
2021/09/24 06:43:11;;;;;;;1999.90;999.90;;;;;;;14.99;69.06;100883.25;15548275;28;20517;-56
2021/09/24 06:50:44;;;;;;;1999.90;999.90;;;;;;;15.26;68.03;100882.41;15530421;28;20053;-56
2021/09/24 06:58:17;;;;;;;1999.90;999.90;;;;;;;16.21;65.32;100899.25;15553125;28;20038;-57
2021/09/24 07:05:50;;;;;;;1999.90;999.90;;;;;;;16.39;65.50;100902.47;15557892;28;20101;-54
2021/09/24 07:13:24;;;;;;;;;;;;;;;16.58;64.54;100910.16;15558091;28;20049;-56
2021/09/24 07:20:56;;;;;;;;;;;;;;;17.37;63.20;100909.75;15545216;28;19926;-53
2021/09/24 07:28:30;;;;;;;1999.90;999.90;;;;;;;17.16;62.45;100896.06;15496837;28;19943;-53
2021/09/24 07:36:03;;;;;;;1999.90;999.90;;;;;;;17.18;61.90;100902.94;15479912;28;20042;-58
2021/09/24 07:43:37;;;;;;;1999.90;999.90;;;;;;;17.75;61.13;100911.69;15512338;23;20069;-58
2021/09/24 07:51:10;;;;;;;1999.90;999.90;;;;;;;17.68;60.02;100917.16;15622422;28;20057;-61
2021/09/24 07:58:43;;;;;;;1999.90;999.90;;;;;;;18.35;59.11;100898.50;15621674;28;20449;-60
2021/09/24 08:06:16;;;;;;;1999.90;999.90;;;;;;;18.60;56.88;100907.31;15621261;28;20045;-60
2021/09/24 08:13:51;;;;;;;1999.90;999.90;;;;;;;18.61;56.11;100914.59;15619307;28;20498;-59
2021/09/24 08:21:26;;;;;;;1999.90;999.90;;;;;;;19.01;55.81;100907.47;15621608;28;20472;-61
2021/09/24 08:29:00;;;;;;;1999.90;999.90;;;;;;;19.08;54.76;100901.91;15627324;28;20042;-60
2021/09/24 08:36:33;;;;;;;1999.90;999.90;;;;;;;19.18;54.61;100912.53;15619697;28;20041;-60
2021/09/24 08:44:06;;;;;;;;;;;;;;;19.35;53.77;100916.72;15620397;28;20065;-59
2021/09/24 08:51:40;;;;;;;1999.90;999.90;;;;;;;19.79;53.95;100925.28;15619520;28;19921;-60
2021/09/24 08:59:13;;;;;;;1999.90;999.90;;;;;;;19.27;54.25;100932.00;15618093;28;20045;-61
2021/09/24 09:06:47;;;;;;;1999.90;999.90;;;;;;;19.45;54.25;100935.84;15618793;28;20045;-59
2021/09/24 09:14:23;;;;;;;1999.90;999.90;;;;;;;19.34;55.31;100943.41;15584653;28;20325;-61
2021/09/24 09:21:55;;;;;;;1999.90;999.90;;;;;;;20.30;56.08;100932.97;15598971;28;20052;-59
2021/09/24 09:29:31;;;;;;;1999.90;999.90;;;;;;;20.13;53.28;100939.34;15617226;28;20041;-59
2021/09/24 09:37:14;;;;;;;1999.90;999.90;;;;;;;21.21;52.09;100950.09;15616491;28;20386;-60
2021/09/24 09:44:48;;;;;;;1999.90;999.90;;;;;;;19.77;54.72;100949.53;15616717;28;20051;-60
2021/09/24 09:52:22;;;;;;;1999.90;999.90;;;;;;;19.79;55.38;100956.41;15616312;28;20045;-60
2021/09/24 09:59:57;;;;;;;1999.90;999.90;;;;;;;19.18;57.68;100954.16;15616034;28;20054;-59
2021/09/24 10:07:37;;;;;;;1999.90;999.90;;;;;;;19.49;58.35;100956.53;15615324;28;20046;-59
2021/09/24 10:15:15;;;;;;;1999.90;999.90;;;;;;;19.19;59.79;100964.25;15598106;28;20069;-57
2021/09/24 10:22:47;;;;;;;1999.90;999.90;;;;;;;19.36;59.90;100960.00;15615206;28;20045;-60
2021/09/24 10:30:25;;;;;;;1999.90;999.90;;;;;;;19.11;60.14;100959.72;15617824;28;20429;-60
2021/09/24 10:38:08;;;;;;;1999.90;999.90;;;;;;;18.98;61.04;100954.31;15608908;28;20049;-58
2021/09/24 10:45:42;;;;;;;1999.90;999.90;;;;;;;18.55;61.75;100952.88;15608683;28;20046;-59
2021/09/24 10:53:18;;;;;;;1999.90;999.90;;;;;;;18.54;62.81;100953.25;15608442;28;20045;-59
2021/09/24 11:00:52;;;;;;;1999.90;999.90;;;;;;;18.74;62.58;100949.94;15625702;28;20115;-58
2021/09/24 11:08:42;;;;;;;1999.90;999.90;;;;;;;18.84;62.27;100954.09;15606875;28;20115;-60
2021/09/24 11:16:18;;;;;;;1999.90;999.90;;;;;;;18.48;63.52;100943.50;15624137;28;20092;-61
2021/09/24 11:23:52;;;;;;;1999.90;999.90;;;;;;;18.77;63.41;100937.06;15623628;28;20045;-61
2021/09/24 11:32:05;;;;;;;1999.90;999.90;;;;;;;18.86;63.48;100929.13;15606623;28;20594;-59
2021/09/24 11:39:38;;;;;;;1999.90;999.90;;;;;;;18.81;63.40;100920.97;15623083;28;20042;-58
2021/09/24 11:47:16;;;;;;;1999.90;999.90;;;;;;;18.63;64.20;100920.69;15604467;28;20060;-58
2021/09/24 11:54:49;;;;;;;1999.90;999.90;;;;;;;19.77;61.33;100907.88;15622428;28;20057;-59
2021/09/24 12:02:23;;;;;;;1999.90;999.90;;;;;;;21.53;57.10;100905.59;15604457;28;20045;-61
2021/09/24 12:09:58;;;;;;;1999.90;999.90;;;;;;;21.19;57.51;100904.28;15625762;28;20044;-61
2021/09/24 12:17:32;;;;;;;1999.90;999.90;;;;;;;20.65;60.39;100909.75;15655877;28;20046;-57
2021/09/24 12:25:14;;;;;;;1999.90;999.90;;;;;;;20.41;60.63;100905.50;15577625;28;20095;-57
2021/09/24 12:32:47;;;;;;;1999.90;999.90;;;;;;;21.00;59.40;100906.22;15644717;28;20391;-57
2021/09/24 12:40:21;;;;;;;1999.90;999.90;;;;;;;22.35;55.27;100907.63;15607327;28;20058;-59
2021/09/24 12:47:55;;;;;;;1999.90;999.90;;;;;;;20.54;60.54;100908.06;15613803;28;20145;-59
2021/09/24 12:55:28;;;;;;;1999.90;999.90;;;;;;;21.65;57.39;100900.72;15619787;28;20073;-58
2021/09/24 13:03:02;;;;;;;1999.90;999.90;;;;;;;22.93;53.18;100911.97;15622309;28;20477;-61
2021/09/24 13:10:34;;;;;;;1999.90;999.90;;;;;;;21.69;56.42;100916.56;15651083;28;20107;-61
2021/09/24 13:18:10;;;;;;;1999.90;999.90;;;;;;;20.98;59.09;100905.81;15607813;28;20132;-59
2021/09/24 13:25:43;;;;;;;1999.90;999.90;;;;;;;21.03;58.61;100902.59;15609939;28;20049;-59
2021/09/24 13:33:17;;;;;;;1999.90;999.90;;;;;;;21.15;58.51;100900.59;15623872;28;20521;-61
2021/09/24 13:40:49;;;;;;;1999.90;999.90;;;;;;;21.12;58.79;100898.56;15588524;28;20103;-58
2021/09/24 13:48:23;;;;;;;1999.90;999.90;;;;;;;20.94;59.92;100892.81;15584727;28;20069;-59
2021/09/24 13:55:56;;;;;;;1999.90;999.90;;;;;;;20.66;59.95;100882.19;15570156;28;20157;-57
2021/09/24 14:03:29;;;;;;;1999.90;999.90;;;;;;;20.78;59.53;100892.38;15554722;28;20442;-59
2021/09/24 14:11:01;;;;;;;1999.90;999.90;;;;;;;20.47;60.52;100891.81;15577784;28;20041;-61
2021/09/24 14:18:35;;;;;;;1999.90;999.90;;;;;;;20.45;60.60;100871.56;15627323;28;20092;-61
2021/09/24 14:26:08;;;;;;;1999.90;999.90;;;;;;;20.60;60.08;100876.09;15609478;28;20499;-61
2021/09/24 14:33:42;;;;;;;1999.90;999.90;;;;;;;21.01;59.70;100888.00;15627292;28;20038;-60
2021/09/24 14:41:14;;;;;;;1999.90;999.90;;;;;;;20.86;59.72;100877.03;15627012;28;20111;-60
2021/09/24 14:48:48;;;;;;;1999.90;999.90;;;;;;;20.58;60.70;100866.38;15626201;28;20046;-60
2021/09/24 14:56:21;;;;;;;1999.90;999.90;;;;;;;20.47;61.80;100871.97;15625902;28;20047;-59
2021/09/24 15:03:55;;;;;;;1999.90;999.90;;;;;;;20.40;61.35;100869.88;15607047;28;20481;-60
2021/09/24 15:11:28;;;;;;;1999.90;999.90;;;;;;;20.43;61.79;100868.31;15624706;28;20050;-61
2021/09/24 15:19:01;;;;;;;1999.90;999.90;;;;;;;20.25;61.85;100873.84;15623100;28;20267;-61
2021/09/24 15:26:34;;;;;;;1999.90;999.90;;;;;;;20.25;62.46;100879.50;15624263;28;20125;-61
2021/09/24 15:34:08;;;;;;;1999.90;999.90;;;;;;;20.06;62.26;100886.25;15623983;28;20072;-62
2021/09/24 15:41:42;;;;;;;1999.90;999.90;;;;;;;19.96;63.02;100880.53;15623106;28;20041;-60
2021/09/24 15:49:16;;;;;;;1999.90;999.90;;;;;;;20.17;62.84;100884.31;15627491;28;20046;-60
2021/09/24 15:56:48;;;;;;;1999.90;999.90;;;;;;;19.97;63.04;100891.44;15607938;28;20056;-57
2021/09/24 16:04:22;;;;;;;1999.90;999.90;;;;;;;20.07;63.05;100885.06;15604539;28;20068;-59
2021/09/24 16:11:54;;;;;;;1999.90;999.90;;;;;;;19.97;62.79;100884.97;15626325;28;20128;-60
2021/09/24 16:19:30;;;;;;;1999.90;999.90;;;;;;;20.21;62.95;100894.84;15592887;28;20045;-61
2021/09/24 16:27:03;;;;;;;1999.90;999.90;;;;;;;20.12;64.00;100887.53;15660968;28;20124;-60
2021/09/24 16:34:37;;;;;;;1999.90;999.90;;;;;;;20.08;63.51;100903.66;15645651;28;20051;-61
2021/09/24 16:42:09;;;;;;;1999.90;999.90;;;;;;;20.04;63.94;100894.34;15636442;28;20077;-60
2021/09/24 16:49:43;;;;;;;1999.90;999.90;;;;;;;19.91;64.00;100892.22;15659984;28;20044;-60
2021/09/24 16:57:15;;;;;;;1999.90;999.90;;;;;;;19.92;64.69;100896.69;15638211;28;20041;-58
2021/09/24 17:04:49;;;;;;;1999.90;999.90;;;;;;;19.79;64.88;100891.31;15659843;28;20041;-60
2021/09/24 17:12:21;;;;;;;1999.90;999.90;;;;;;;19.79;64.58;100905.47;15637704;28;20354;-60
2021/09/24 17:19:55;;;;;;;1999.90;999.90;;;;;;;19.89;64.32;100909.59;15645049;28;20033;-60
2021/09/24 17:27:28;;;;;;;1999.90;999.90;;;;;;;19.63;65.17;100904.94;15634579;28;20038;-60
2021/09/24 17:35:01;;;;;;;1999.90;999.90;;;;;;;19.70;65.22;100913.50;15609292;28;20044;-59
2021/09/24 17:42:34;;;;;;;1999.90;999.90;;;;;;;19.87;64.68;100924.13;15637304;28;20548;-60
2021/09/24 17:50:09;;;;;;;1999.90;999.90;;;;;;;19.76;65.22;100925.25;15614166;28;20037;-60
2021/09/24 17:57:42;;;;;;;1999.90;999.90;;;;;;;19.77;65.11;100933.34;15600902;28;20037;-61
2021/09/24 18:05:16;;;;;;;1999.90;999.90;;;;;;;19.84;64.99;100932.63;15608879;28;20095;-60
2021/09/24 18:12:49;;;;;;;1999.90;999.90;;;;;;;19.76;65.08;100937.38;15640234;28;20041;-59
2021/09/24 18:20:24;;;;;;;1999.90;999.90;;;;;;;19.67;65.46;100938.91;15620650;28;20048;-59
2021/09/24 18:27:57;;;;;;;1999.90;999.90;;;;;;;19.71;65.33;100946.25;15636459;28;20069;-59
2021/09/24 18:35:30;;;;;;;1999.90;999.90;;;;;;;19.62;65.16;100947.78;15643794;28;20502;-60
2021/09/24 18:43:03;;;;;;;1999.90;999.90;;;;;;;19.50;65.56;100957.34;15625312;28;20316;-58
2021/09/24 18:50:37;;;;;;;1999.90;999.90;;;;;;;19.54;65.68;100959.00;15609727;28;20038;-59
2021/09/24 18:58:09;;;;;;;1999.90;999.90;;;;;;;19.44;65.97;100956.03;15647716;28;20059;-59
2021/09/24 19:05:42;;;;;;;1999.90;999.90;;;;;;;19.39;66.19;100945.09;15645388;28;20054;-58
2021/09/24 19:13:15;;;;;;;1999.90;999.90;;;;;;;19.51;65.88;100948.44;15622757;28;20049;-58
2021/09/24 19:20:49;;;;;;;1999.90;999.90;;;;;;;19.62;65.97;100942.94;15592238;28;20441;-59
2021/09/24 19:28:21;;;;;;;1999.90;999.90;;;;;;;19.42;66.57;100944.31;15628861;28;20050;-59
2021/09/24 19:35:55;;;;;;;1999.90;999.90;;;;;;;19.44;66.84;100954.03;15611107;28;20037;-59
2021/09/24 19:43:30;;;;;;;1999.90;999.90;;;;;;;19.46;67.02;100950.81;15629046;28;20459;-59
2021/09/24 19:51:07;;;;;;;1999.90;999.90;;;;;;;19.65;66.63;100950.63;15631549;28;20129;-59
2021/09/24 19:58:39;;;;;;;1999.90;999.90;;;;;;;19.74;66.89;100951.13;15633290;28;20041;-58
2021/09/24 20:06:13;;;;;;;1999.90;999.90;;;;;;;19.69;67.20;100950.66;15617970;28;20045;-57
2021/09/24 20:13:45;;;;;;;1999.90;999.90;;;;;;;19.59;67.83;100960.66;15624930;28;20034;-55
2021/09/24 20:21:20;;;;;;;1999.90;999.90;;;;;;;19.73;67.56;100960.81;15599073;28;20135;-54
2021/09/24 20:28:52;;;;;;;1999.90;999.90;;;;;;;19.71;68.01;100959.59;15627245;28;20049;-56
2021/09/24 20:36:26;;;;;;;1999.90;999.90;;;;;;;19.60;68.14;100948.16;15662595;28;20040;-57
2021/09/24 20:43:58;;;;;;;1999.90;999.90;;;;;;;19.70;67.99;100952.31;15645421;28;20076;-58
2021/09/24 20:51:32;;;;;;;1999.90;999.90;;;;;;;19.65;68.52;100958.31;15670595;28;20104;-60
2021/09/24 20:59:05;;;;;;;1999.90;999.90;;;;;;;19.67;68.80;100951.06;15631957;28;20072;-58
2021/09/24 21:06:39;;;;;;;1999.90;999.90;;;;;;;19.64;69.10;100939.69;15661013;28;20045;-56
2021/09/24 21:14:11;;;;;;;1999.90;999.90;;;;;;;19.66;68.70;100938.09;15615514;28;20112;-57
2021/09/24 21:21:45;;;;;;;1999.90;999.90;;;;;;;19.69;68.65;100940.16;15613913;28;20033;-56
2021/09/24 21:29:17;;;;;;;1999.90;999.90;;;;;;;19.67;68.58;100944.56;15614091;28;20418;-58
2021/09/24 21:36:51;;;;;;;1999.90;999.90;;;;;;;19.69;68.83;100930.84;15647959;28;20053;-60
2021/09/24 21:44:23;;;;;;;1999.90;999.90;;;;;;;19.53;69.25;100928.25;15614098;28;20187;-58
2021/09/24 21:51:57;;;;;;;1999.90;999.90;;;;;;;19.55;69.03;100932.34;15612525;28;20522;-59
2021/09/24 21:59:30;;;;;;;1999.90;999.90;;;;;;;19.67;68.64;100924.75;15607961;28;20049;-59
2021/09/24 22:07:04;;;;;;;1999.90;999.90;;;;;;;19.48;69.32;100925.75;15598071;28;20077;-57
2021/09/24 22:14:37;;;;;;;1999.90;999.90;;;;;;;19.53;69.37;100942.41;15621639;28;20278;-58
2021/09/24 22:22:10;;;;;;;1999.90;999.90;;;;;;;19.65;69.07;100939.31;15627282;28;20442;-58
2021/09/24 22:29:42;;;;;;;1999.90;999.90;;;;;;;19.70;68.72;100944.63;15647562;28;20127;-58
2021/09/24 22:37:16;;;;;;;1999.90;999.90;;;;;;;19.58;69.36;100925.06;15655445;28;20038;-59
2021/09/24 22:44:48;;;;;;;1999.90;999.90;;;;;;;19.65;69.11;100928.00;15661811;28;20044;-60
2021/09/24 22:52:22;;;;;;;1999.90;999.90;;;;;;;19.71;68.67;100915.13;15639463;28;20409;-59
2021/09/24 22:59:54;;;;;;;1999.90;999.90;;;;;;;19.75;68.82;100915.13;15667331;28;20041;-59
2021/09/24 23:07:28;;;;;;;1999.90;999.90;;;;;;;19.65;68.94;100925.16;15624928;28;20049;-58
2021/09/24 23:15:00;;;;;;;1999.90;999.90;;;;;;;19.69;68.91;100914.66;15663183;28;20084;-58
2021/09/24 23:22:34;;;;;;;1999.90;999.90;;;;;;;19.75;68.44;100909.47;15601432;28;20446;-57
2021/09/24 23:30:07;;;;;;;1999.90;999.90;;;;;;;19.68;68.45;100909.41;15590138;28;20455;-57
2021/09/24 23:37:42;;;;;;;1999.90;999.90;;;;;;;19.73;68.21;100904.22;15617553;28;20037;-58
2021/09/24 23:45:14;;;;;;;1999.90;999.90;;;;;;;19.75;67.93;100906.66;15644155;28;20536;-60
2021/09/24 23:52:48;;;;;;;1999.90;999.90;;;;;;;19.85;67.52;100901.06;15659168;28;20446;-60
